sensor_id;sensor_type;location;lat;lon;timestamp;pressure;altitude;pressure_sealevel;temperature;humidity
21433;BME280;18592;49.708;10.900;2023-03-07T00:00:13;97403.19;;;7.15;48.55
21433;BME280;18592;49.708;10.900;2023-03-07T00:02:15;97406.13;;;7.14;48.67
21433;BME280;18592;49.708;10.900;2023-03-07T00:04:16;97403.19;;;7.15;48.60
21433;BME280;18592;49.708;10.900;2023-03-07T00:06:18;97395.31;;;7.14;48.37
21433;BME280;18592;49.708;10.900;2023-03-07T00:08:20;97398.28;;;7.12;49.03
21433;BME280;18592;49.708;10.900;2023-03-07T00:10:22;97399.09;;;7.13;48.59
21433;BME280;18592;49.708;10.900;2023-03-07T00:12:24;97402.38;;;7.15;48.34
21433;BME280;18592;49.708;10.900;2023-03-07T00:14:33;97399.38;;;7.16;48.55
21433;BME280;18592;49.708;10.900;2023-03-07T00:16:35;97393.97;;;7.16;48.48
21433;BME280;18592;49.708;10.900;2023-03-07T00:18:37;97392.34;;;7.15;48.30
21433;BME280;18592;49.708;10.900;2023-03-07T00:20:38;97392.91;;;7.17;48.25
21433;BME280;18592;49.708;10.900;2023-03-07T00:22:47;97389.94;;;7.19;48.48
21433;BME280;18592;49.708;10.900;2023-03-07T00:24:49;97388.31;;;7.18;48.38
21433;BME280;18592;49.708;10.900;2023-03-07T00:26:50;97393.47;;;7.19;48.60
21433;BME280;18592;49.708;10.900;2023-03-07T00:28:55;97391.56;;;7.20;48.36
21433;BME280;18592;49.708;10.900;2023-03-07T00:31:05;97389.38;;;7.17;48.33
21433;BME280;18592;49.708;10.900;2023-03-07T00:33:07;97388.31;;;7.18;48.40
21433;BME280;18592;49.708;10.900;2023-03-07T00:35:09;97383.94;;;7.17;48.43
21433;BME280;18592;49.708;10.900;2023-03-07T00:37:10;97384.50;;;7.19;48.44
21433;BME280;18592;49.708;10.900;2023-03-07T00:39:12;97380.72;;;7.20;48.18
21433;BME280;18592;49.708;10.900;2023-03-07T00:41:19;97378.03;;;7.20;48.47
21433;BME280;18592;49.708;10.900;2023-03-07T00:43:20;97374.75;;;7.18;48.65
21433;BME280;18592;49.708;10.900;2023-03-07T00:45:22;97365.00;;;7.17;48.46
21433;BME280;18592;49.708;10.900;2023-03-07T00:47:24;97365.00;;;7.17;48.62
21433;BME280;18592;49.708;10.900;2023-03-07T00:49:26;97361.22;;;7.18;48.88
21433;BME280;18592;49.708;10.900;2023-03-07T00:51:28;97354.69;;;7.19;48.54
21433;BME280;18592;49.708;10.900;2023-03-07T00:53:31;97345.78;;;7.18;48.46
21433;BME280;18592;49.708;10.900;2023-03-07T00:55:32;97356.63;;;7.18;48.65
21433;BME280;18592;49.708;10.900;2023-03-07T00:57:34;97350.38;;;7.18;48.80
21433;BME280;18592;49.708;10.900;2023-03-07T00:59:36;97343.31;;;7.17;48.49
21433;BME280;18592;49.708;10.900;2023-03-07T01:01:40;97341.44;;;7.17;48.45
21433;BME280;18592;49.708;10.900;2023-03-07T01:03:42;97334.34;;;7.16;48.45
21433;BME280;18592;49.708;10.900;2023-03-07T01:05:48;97329.22;;;7.15;48.56
21433;BME280;18592;49.708;10.900;2023-03-07T01:07:50;97336.50;;;7.14;48.37
21433;BME280;18592;49.708;10.900;2023-03-07T01:09:52;97338.16;;;7.15;48.53
21433;BME280;18592;49.708;10.900;2023-03-07T01:11:54;97334.63;;;7.15;48.52
21433;BME280;18592;49.708;10.900;2023-03-07T01:14:00;97333.81;;;7.14;48.57
21433;BME280;18592;49.708;10.900;2023-03-07T01:16:15;97331.09;;;7.14;48.40
21433;BME280;18592;49.708;10.900;2023-03-07T01:18:17;97333.56;;;7.16;48.36
21433;BME280;18592;49.708;10.900;2023-03-07T01:20:19;97332.19;;;7.13;48.26
21433;BME280;18592;49.708;10.900;2023-03-07T01:22:21;97327.84;;;7.12;48.66
21433;BME280;18592;49.708;10.900;2023-03-07T01:24:25;97324.84;;;7.14;48.59
21433;BME280;18592;49.708;10.900;2023-03-07T01:26:29;97329.72;;;7.12;48.47
21433;BME280;18592;49.708;10.900;2023-03-07T01:28:32;97330.28;;;7.14;48.66
21433;BME280;18592;49.708;10.900;2023-03-07T01:30:34;97329.22;;;7.15;48.50
21433;BME280;18592;49.708;10.900;2023-03-07T01:32:35;97317.31;;;7.16;48.59
21433;BME280;18592;49.708;10.900;2023-03-07T01:34:38;97315.38;;;7.16;48.49
21433;BME280;18592;49.708;10.900;2023-03-07T01:36:40;97312.13;;;7.14;48.65
21433;BME280;18592;49.708;10.900;2023-03-07T01:38:41;97301.06;;;7.16;48.48
21433;BME280;18592;49.708;10.900;2023-03-07T01:40:44;97309.19;;;7.16;48.60
21433;BME280;18592;49.708;10.900;2023-03-07T01:42:46;97295.63;;;7.16;48.47
21433;BME280;18592;49.708;10.900;2023-03-07T01:46:15;97298.34;;;7.16;48.41
21433;BME280;18592;49.708;10.900;2023-03-07T01:47:31;97300.22;;;7.15;48.47
21433;BME280;18592;49.708;10.900;2023-03-07T01:49:38;97296.69;;;7.15;48.53
21433;BME280;18592;49.708;10.900;2023-03-07T01:51:44;97292.94;;;7.16;48.51
21433;BME280;18592;49.708;10.900;2023-03-07T01:53:49;97291.28;;;7.15;48.52
21433;BME280;18592;49.708;10.900;2023-03-07T01:55:51;97288.28;;;7.16;48.71
21433;BME280;18592;49.708;10.900;2023-03-07T01:57:54;97286.41;;;7.17;48.51
21433;BME280;18592;49.708;10.900;2023-03-07T01:59:58;97289.13;;;7.17;48.51
21433;BME280;18592;49.708;10.900;2023-03-07T02:02:09;97291.00;;;7.16;48.56
21433;BME280;18592;49.708;10.900;2023-03-07T02:04:21;97289.41;;;7.15;48.53
21433;BME280;18592;49.708;10.900;2023-03-07T02:06:25;97283.69;;;7.17;48.77
21433;BME280;18592;49.708;10.900;2023-03-07T02:08:29;97275.03;;;7.15;48.35
21433;BME280;18592;49.708;10.900;2023-03-07T02:10:34;97285.59;;;7.16;48.50
21433;BME280;18592;49.708;10.900;2023-03-07T02:12:38;97291.00;;;7.16;48.39
21433;BME280;18592;49.708;10.900;2023-03-07T02:14:46;97279.38;;;7.16;48.45
21433;BME280;18592;49.708;10.900;2023-03-07T02:16:49;97281.00;;;7.17;48.57
21433;BME280;18592;49.708;10.900;2023-03-07T02:18:51;97283.69;;;7.17;48.16
21433;BME280;18592;49.708;10.900;2023-03-07T02:23:23;97275.03;;;7.15;48.38
21433;BME280;18592;49.708;10.900;2023-03-07T02:25:36;97276.66;;;7.16;48.34
21433;BME280;18592;49.708;10.900;2023-03-07T02:27:43;97280.44;;;7.15;48.53
21433;BME280;18592;49.708;10.900;2023-03-07T02:29:46;97276.34;;;7.12;48.63
21433;BME280;18592;49.708;10.900;2023-03-07T02:31:49;97288.84;;;7.13;48.54
21433;BME280;18592;49.708;10.900;2023-03-07T02:33:51;97280.72;;;7.13;48.51
21433;BME280;18592;49.708;10.900;2023-03-07T02:35:55;97277.19;;;7.13;48.58
21433;BME280;18592;49.708;10.900;2023-03-07T02:38:01;97281.50;;;7.14;48.42
21433;BME280;18592;49.708;10.900;2023-03-07T02:40:08;97282.59;;;7.13;48.61
21433;BME280;18592;49.708;10.900;2023-03-07T02:42:16;97277.19;;;7.13;48.61
21433;BME280;18592;49.708;10.900;2023-03-07T02:44:24;97279.91;;;7.13;48.63
21433;BME280;18592;49.708;10.900;2023-03-07T02:46:25;97284.22;;;7.14;48.62
21433;BME280;18592;49.708;10.900;2023-03-07T02:48:27;97286.94;;;7.14;48.69
21433;BME280;18592;49.708;10.900;2023-03-07T02:50:29;97280.94;;;7.12;48.70
21433;BME280;18592;49.708;10.900;2023-03-07T02:52:31;97281.78;;;7.12;48.45
21433;BME280;18592;49.708;10.900;2023-03-07T02:54:33;97285.31;;;7.13;48.58
21433;BME280;18592;49.708;10.900;2023-03-07T02:56:35;97273.38;;;7.14;48.46
21433;BME280;18592;49.708;10.900;2023-03-07T02:58:37;97277.19;;;7.13;48.49
21433;BME280;18592;49.708;10.900;2023-03-07T03:00:38;97273.91;;;7.11;48.78
21433;BME280;18592;49.708;10.900;2023-03-07T03:02:40;97270.13;;;7.12;48.67
21433;BME280;18592;49.708;10.900;2023-03-07T03:04:42;97270.13;;;7.12;48.97
21433;BME280;18592;49.708;10.900;2023-03-07T03:06:44;97260.63;;;7.09;48.44
21433;BME280;18592;49.708;10.900;2023-03-07T03:08:46;97270.38;;;7.10;48.46
21433;BME280;18592;49.708;10.900;2023-03-07T03:10:54;97267.94;;;7.09;48.81
21433;BME280;18592;49.708;10.900;2023-03-07T03:12:58;97265.50;;;7.07;48.72
21433;BME280;18592;49.708;10.900;2023-03-07T03:15:00;97265.22;;;7.09;48.67
21433;BME280;18592;49.708;10.900;2023-03-07T03:17:05;97266.31;;;7.08;48.73
21433;BME280;18592;49.708;10.900;2023-03-07T03:19:07;97258.19;;;7.08;48.60
21433;BME280;18592;49.708;10.900;2023-03-07T03:21:10;97250.03;;;7.02;49.23
21433;BME280;18592;49.708;10.900;2023-03-07T03:23:12;97255.44;;;7.02;48.68
21433;BME280;18592;49.708;10.900;2023-03-07T03:25:14;97260.03;;;7.02;48.79
21433;BME280;18592;49.708;10.900;2023-03-07T03:27:17;97253.25;;;6.99;49.23
21433;BME280;18592;49.708;10.900;2023-03-07T03:29:22;97251.88;;;6.97;48.96
21433;BME280;18592;49.708;10.900;2023-03-07T03:31:28;97250.22;;;6.96;48.90
21433;BME280;18592;49.708;10.900;2023-03-07T03:33:31;97246.97;;;6.94;49.08
21433;BME280;18592;49.708;10.900;2023-03-07T03:35:33;97244.53;;;6.92;48.97
21433;BME280;18592;49.708;10.900;2023-03-07T03:37:35;97249.94;;;6.92;49.11
21433;BME280;18592;49.708;10.900;2023-03-07T03:39:38;97246.41;;;6.92;49.00
21433;BME280;18592;49.708;10.900;2023-03-07T03:41:41;97232.88;;;6.92;48.97
21433;BME280;18592;49.708;10.900;2023-03-07T03:43:43;97237.47;;;6.91;49.06
21433;BME280;18592;49.708;10.900;2023-03-07T03:45:55;97240.69;;;6.88;48.91
21433;BME280;18592;49.708;10.900;2023-03-07T03:47:59;97233.91;;;6.86;49.23
21433;BME280;18592;49.708;10.900;2023-03-07T03:50:01;97231.47;;;6.84;49.09
21433;BME280;18592;49.708;10.900;2023-03-07T03:52:08;97231.97;;;6.81;49.33
21433;BME280;18592;49.708;10.900;2023-03-07T03:54:10;97224.94;;;6.80;49.06
21433;BME280;18592;49.708;10.900;2023-03-07T03:56:14;97224.13;;;6.80;49.78
21433;BME280;18592;49.708;10.900;2023-03-07T03:58:17;97227.06;;;6.78;49.22
21433;BME280;18592;49.708;10.900;2023-03-07T04:00:19;97222.22;;;6.75;49.39
21433;BME280;18592;49.708;10.900;2023-03-07T04:02:21;97223.28;;;6.74;49.34
21433;BME280;18592;49.708;10.900;2023-03-07T04:04:24;97213.50;;;6.73;49.44
21433;BME280;18592;49.708;10.900;2023-03-07T04:06:34;97220.00;;;6.72;49.40
21433;BME280;18592;49.708;10.900;2023-03-07T04:08:37;97218.38;;;6.71;49.75
21433;BME280;18592;49.708;10.900;2023-03-07T04:10:39;97212.41;;;6.69;49.62
21433;BME280;18592;49.708;10.900;2023-03-07T04:12:45;97221.59;;;6.68;49.98
21433;BME280;18592;49.708;10.900;2023-03-07T04:14:50;97216.16;;;6.68;49.32
21433;BME280;18592;49.708;10.900;2023-03-07T04:16:52;97219.69;;;6.69;49.60
21433;BME280;18592;49.708;10.900;2023-03-07T04:18:54;97216.16;;;6.68;49.70
21433;BME280;18592;49.708;10.900;2023-03-07T04:20:56;97208.03;;;6.68;49.65
21433;BME280;18592;49.708;10.900;2023-03-07T04:22:58;97207.50;;;6.66;49.18
21433;BME280;18592;49.708;10.900;2023-03-07T04:24:59;97211.28;;;6.65;49.22
21433;BME280;18592;49.708;10.900;2023-03-07T04:27:01;97203.97;;;6.66;49.68
21433;BME280;18592;49.708;10.900;2023-03-07T04:29:03;97204.25;;;6.64;49.68
21433;BME280;18592;49.708;10.900;2023-03-07T04:31:14;97207.78;;;6.65;49.71
21433;BME280;18592;49.708;10.900;2023-03-07T04:33:19;97206.94;;;6.64;49.83
21433;BME280;18592;49.708;10.900;2023-03-07T04:35:22;97206.41;;;6.62;49.54
21433;BME280;18592;49.708;10.900;2023-03-07T04:37:24;97206.41;;;6.62;50.05
21433;BME280;18592;49.708;10.900;2023-03-07T04:39:26;97202.59;;;6.63;49.79
21433;BME280;18592;49.708;10.900;2023-03-07T04:41:28;97205.56;;;6.62;49.93
21433;BME280;18592;49.708;10.900;2023-03-07T04:43:41;97202.03;;;6.61;49.57
21433;BME280;18592;49.708;10.900;2023-03-07T04:45:43;97197.72;;;6.60;50.04
21433;BME280;18592;49.708;10.900;2023-03-07T04:47:45;97194.44;;;6.58;49.96
21433;BME280;18592;49.708;10.900;2023-03-07T04:49:47;97205.03;;;6.60;49.71
21433;BME280;18592;49.708;10.900;2023-03-07T04:51:48;97197.72;;;6.60;49.54
21433;BME280;18592;49.708;10.900;2023-03-07T04:53:55;97191.22;;;6.61;49.99
21433;BME280;18592;49.708;10.900;2023-03-07T04:56:01;97194.44;;;6.58;49.88
21433;BME280;18592;49.708;10.900;2023-03-07T04:58:09;97198.78;;;6.59;49.97
21433;BME280;18592;49.708;10.900;2023-03-07T05:00:14;97196.91;;;6.60;50.04
21433;BME280;18592;49.708;10.900;2023-03-07T05:02:16;97187.97;;;6.59;50.21
21433;BME280;18592;49.708;10.900;2023-03-07T05:04:18;97193.09;;;6.61;50.29
21433;BME280;18592;49.708;10.900;2023-03-07T05:06:20;97193.94;;;6.61;50.24
21433;BME280;18592;49.708;10.900;2023-03-07T05:08:24;97189.59;;;6.60;50.28
21433;BME280;18592;49.708;10.900;2023-03-07T05:10:27;97185.25;;;6.59;50.23
21433;BME280;18592;49.708;10.900;2023-03-07T05:12:32;97183.38;;;6.60;50.11
21433;BME280;18592;49.708;10.900;2023-03-07T05:14:34;97193.09;;;6.61;50.18
21433;BME280;18592;49.708;10.900;2023-03-07T05:16:35;97184.97;;;6.61;50.33
21433;BME280;18592;49.708;10.900;2023-03-07T05:18:37;97188.50;;;6.61;49.88
21433;BME280;18592;49.708;10.900;2023-03-07T05:20:39;97183.38;;;6.60;50.32
21433;BME280;18592;49.708;10.900;2023-03-07T05:22:43;97183.38;;;6.60;49.86
21433;BME280;18592;49.708;10.900;2023-03-07T05:24:45;97187.69;;;6.61;49.92
21433;BME280;18592;49.708;10.900;2023-03-07T05:26:47;97183.09;;;6.61;50.23
21433;BME280;18592;49.708;10.900;2023-03-07T05:28:49;97186.91;;;6.60;50.31
21433;BME280;18592;49.708;10.900;2023-03-07T05:30:52;97188.50;;;6.61;49.94
21433;BME280;18592;49.708;10.900;2023-03-07T05:32:54;97176.84;;;6.61;50.23
21433;BME280;18592;49.708;10.900;2023-03-07T05:34:56;97178.50;;;6.62;49.79
21433;BME280;18592;49.708;10.900;2023-03-07T05:37:01;97176.84;;;6.61;50.15
21433;BME280;18592;49.708;10.900;2023-03-07T05:39:03;97182.28;;;6.61;49.94
21433;BME280;18592;49.708;10.900;2023-03-07T05:41:08;97176.06;;;6.60;50.35
21433;BME280;18592;49.708;10.900;2023-03-07T05:43:10;97176.06;;;6.60;50.09
21433;BME280;18592;49.708;10.900;2023-03-07T05:45:12;97178.50;;;6.62;50.09
21433;BME280;18592;49.708;10.900;2023-03-07T05:47:14;97177.69;;;6.61;50.04
21433;BME280;18592;49.708;10.900;2023-03-07T05:49:16;97173.09;;;6.62;50.21
21433;BME280;18592;49.708;10.900;2023-03-07T05:51:17;97174.16;;;6.61;50.72
21433;BME280;18592;49.708;10.900;2023-03-07T05:53:19;97172.28;;;6.61;50.08
21433;BME280;18592;49.708;10.900;2023-03-07T05:55:22;97178.22;;;6.63;49.88
21433;BME280;18592;49.708;10.900;2023-03-07T05:57:24;97174.72;;;6.63;50.32
21433;BME280;18592;49.708;10.900;2023-03-07T05:59:26;97174.47;;;6.64;50.22
21433;BME280;18592;49.708;10.900;2023-03-07T06:01:29;97172.03;;;6.63;50.11
21433;BME280;18592;49.708;10.900;2023-03-07T06:03:31;97169.56;;;6.61;50.44
21433;BME280;18592;49.708;10.900;2023-03-07T06:05:33;97165.78;;;6.62;50.15
21433;BME280;18592;49.708;10.900;2023-03-07T06:07:35;97166.84;;;6.61;50.28
21433;BME280;18592;49.708;10.900;2023-03-07T06:09:37;97166.63;;;6.63;50.32
21433;BME280;18592;49.708;10.900;2023-03-07T06:11:40;97168.00;;;6.65;50.20
21433;BME280;18592;49.708;10.900;2023-03-07T06:13:43;97170.09;;;6.63;50.33
21433;BME280;18592;49.708;10.900;2023-03-07T06:15:48;97166.63;;;6.63;50.13
21433;BME280;18592;49.708;10.900;2023-03-07T06:17:51;97167.69;;;6.62;50.14
21433;BME280;18592;49.708;10.900;2023-03-07T06:19:55;97156.56;;;6.63;50.48
21433;BME280;18592;49.708;10.900;2023-03-07T06:21:57;97164.19;;;6.66;50.18
21433;BME280;18592;49.708;10.900;2023-03-07T06:23:59;97164.19;;;6.66;50.32
21433;BME280;18592;49.708;10.900;2023-03-07T06:26:04;97165.28;;;6.65;50.13
21433;BME280;18592;49.708;10.900;2023-03-07T06:28:05;97168.00;;;6.65;50.35
21433;BME280;18592;49.708;10.900;2023-03-07T06:30:09;97172.06;;;6.68;50.30
21433;BME280;18592;49.708;10.900;2023-03-07T06:32:11;97171.78;;;6.69;50.27
21433;BME280;18592;49.708;10.900;2023-03-07T06:34:16;97163.66;;;6.69;50.71
21433;BME280;18592;49.708;10.900;2023-03-07T06:36:20;97162.84;;;6.69;50.60
21433;BME280;18592;49.708;10.900;2023-03-07T06:38:31;97169.63;;;6.71;50.38
21433;BME280;18592;49.708;10.900;2023-03-07T06:40:34;97162.34;;;6.72;50.55
21433;BME280;18592;49.708;10.900;2023-03-07T06:42:36;97164.75;;;6.73;50.60
21433;BME280;18592;49.708;10.900;2023-03-07T06:44:39;97157.22;;;6.75;50.41
21433;BME280;18592;49.708;10.900;2023-03-07T06:46:44;97164.81;;;6.78;50.34
21433;BME280;18592;49.708;10.900;2023-03-07T06:48:49;97155.06;;;6.77;50.78
21433;BME280;18592;49.708;10.900;2023-03-07T06:50:54;97156.69;;;6.78;50.43
21433;BME280;18592;49.708;10.900;2023-03-07T06:52:55;97159.13;;;6.80;50.77
21433;BME280;18592;49.708;10.900;2023-03-07T06:54:58;97151.56;;;6.82;50.53
21433;BME280;18592;49.708;10.900;2023-03-07T06:57:00;97147.78;;;6.83;50.72
21433;BME280;18592;49.708;10.900;2023-03-07T06:59:02;97151.06;;;6.85;50.51
21433;BME280;18592;49.708;10.900;2023-03-07T07:01:04;97150.78;;;6.86;50.48
21433;BME280;18592;49.708;10.900;2023-03-07T07:03:13;97159.72;;;6.87;50.90
21433;BME280;18592;49.708;10.900;2023-03-07T07:05:15;97145.91;;;6.88;50.75
21433;BME280;18592;49.708;10.900;2023-03-07T07:07:19;97145.66;;;6.90;50.69
21433;BME280;18592;49.708;10.900;2023-03-07T07:09:20;97153.50;;;6.91;50.48
21433;BME280;18592;49.708;10.900;2023-03-07T07:11:24;97146.50;;;6.95;50.73
21433;BME280;18592;49.708;10.900;2023-03-07T07:13:27;97155.19;;;6.97;50.90
21433;BME280;18592;49.708;10.900;2023-03-07T07:15:29;97138.66;;;6.99;50.74
21433;BME280;18592;49.708;10.900;2023-03-07T07:17:33;97148.16;;;7.01;50.63
21433;BME280;18592;49.708;10.900;2023-03-07T07:19:41;97139.50;;;7.04;50.67
21433;BME280;18592;49.708;10.900;2023-03-07T07:21:43;97145.75;;;7.05;50.71
21433;BME280;18592;49.708;10.900;2023-03-07T07:23:48;97141.41;;;7.09;50.89
21433;BME280;18592;49.708;10.900;2023-03-07T07:25:49;97143.59;;;7.12;51.05
21433;BME280;18592;49.708;10.900;2023-03-07T07:27:54;97143.34;;;7.14;50.62
21433;BME280;18592;49.708;10.900;2023-03-07T07:29:56;97149.06;;;7.17;51.00
21433;BME280;18592;49.708;10.900;2023-03-07T07:31:58;97152.06;;;7.21;51.05
21433;BME280;18592;49.708;10.900;2023-03-07T07:34:00;97144.47;;;7.23;50.71
21433;BME280;18592;49.708;10.900;2023-03-07T07:36:04;97150.97;;;7.27;50.85
21433;BME280;18592;49.708;10.900;2023-03-07T07:38:08;97139.34;;;7.31;50.97
21433;BME280;18592;49.708;10.900;2023-03-07T07:40:11;97151.31;;;7.35;50.92
21433;BME280;18592;49.708;10.900;2023-03-07T07:42:13;97148.84;;;7.39;50.82
21433;BME280;18592;49.708;10.900;2023-03-07T07:44:29;97155.09;;;7.39;50.70
21433;BME280;18592;49.708;10.900;2023-03-07T07:46:36;97160.28;;;7.41;50.82
21433;BME280;18592;49.708;10.900;2023-03-07T07:48:40;97161.38;;;7.45;50.87
21433;BME280;18592;49.708;10.900;2023-03-07T07:50:43;97156.50;;;7.47;51.24
21433;BME280;18592;49.708;10.900;2023-03-07T07:52:45;97162.22;;;7.50;51.06
21433;BME280;18592;49.708;10.900;2023-03-07T07:54:47;97165.19;;;7.54;50.92
21433;BME280;18592;49.708;10.900;2023-03-07T07:56:51;97161.69;;;7.58;50.86
21433;BME280;18592;49.708;10.900;2023-03-07T07:58:55;97162.78;;;7.62;50.93
21433;BME280;18592;49.708;10.900;2023-03-07T08:00:57;97157.66;;;7.66;51.08
21433;BME280;18592;49.708;10.900;2023-03-07T08:02:58;97168.75;;;7.69;50.88
21433;BME280;18592;49.708;10.900;2023-03-07T08:05:00;97168.53;;;7.71;50.99
21433;BME280;18592;49.708;10.900;2023-03-07T08:07:03;97157.13;;;7.74;50.81
21433;BME280;18592;49.708;10.900;2023-03-07T08:09:04;97169.34;;;7.77;50.67
21433;BME280;18592;49.708;10.900;2023-03-07T08:11:06;97166.09;;;7.80;50.86
21433;BME280;18592;49.708;10.900;2023-03-07T08:13:15;97164.19;;;7.80;51.31
21433;BME280;18592;49.708;10.900;2023-03-07T08:15:18;97155.53;;;7.83;51.10
21433;BME280;18592;49.708;10.900;2023-03-07T08:17:22;97158.53;;;7.87;50.90
21433;BME280;18592;49.708;10.900;2023-03-07T08:19:23;97157.19;;;7.89;50.91
21433;BME280;18592;49.708;10.900;2023-03-07T08:21:28;97156.63;;;7.92;50.96
21433;BME280;18592;49.708;10.900;2023-03-07T08:23:29;97154.47;;;7.94;51.00
21433;BME280;18592;49.708;10.900;2023-03-07T08:25:31;97144.69;;;7.98;50.83
21433;BME280;18592;49.708;10.900;2023-03-07T08:27:33;97145.00;;;8.02;50.98
21433;BME280;18592;49.708;10.900;2023-03-07T08:29:35;97151.22;;;8.02;50.96
21433;BME280;18592;49.708;10.900;2023-03-07T08:31:37;97152.84;;;8.03;50.80
21433;BME280;18592;49.708;10.900;2023-03-07T08:33:39;97149.31;;;8.08;50.64
21433;BME280;18592;49.708;10.900;2023-03-07T08:35:41;97144.19;;;8.11;50.61
21433;BME280;18592;49.708;10.900;2023-03-07T08:37:43;97145.53;;;8.14;50.86
21433;BME280;18592;49.708;10.900;2023-03-07T08:39:44;97144.72;;;8.18;50.67
21433;BME280;18592;49.708;10.900;2023-03-07T08:41:46;97131.44;;;8.22;50.88
21433;BME280;18592;49.708;10.900;2023-03-07T08:43:48;97139.31;;;8.23;50.85
21433;BME280;18592;49.708;10.900;2023-03-07T08:45:50;97130.91;;;8.30;50.41
21433;BME280;18592;49.708;10.900;2023-03-07T08:47:54;97128.75;;;8.32;50.86
21433;BME280;18592;49.708;10.900;2023-03-07T08:49:56;97131.19;;;8.34;50.95
21433;BME280;18592;49.708;10.900;2023-03-07T08:51:58;97136.09;;;8.37;50.79
21433;BME280;18592;49.708;10.900;2023-03-07T08:54:00;97133.91;;;8.44;50.90
21433;BME280;18592;49.708;10.900;2023-03-07T08:56:06;97137.69;;;8.48;50.90
21433;BME280;18592;49.708;10.900;2023-03-07T08:58:09;97131.19;;;8.54;50.84
21433;BME280;18592;49.708;10.900;2023-03-07T09:00:11;97127.66;;;8.58;51.08
21433;BME280;18592;49.708;10.900;2023-03-07T09:02:13;97129.00;;;8.66;50.69
21433;BME280;18592;49.708;10.900;2023-03-07T09:04:15;97128.97;;;8.71;50.45
21433;BME280;18592;49.708;10.900;2023-03-07T09:06:18;97120.00;;;8.75;50.64
21433;BME280;18592;49.708;10.900;2023-03-07T09:08:20;97125.44;;;8.80;50.43
21433;BME280;18592;49.708;10.900;2023-03-07T09:10:23;97120.28;;;8.84;50.58
21433;BME280;18592;49.708;10.900;2023-03-07T09:12:25;97119.97;;;8.90;50.51
21433;BME280;18592;49.708;10.900;2023-03-07T09:14:27;97117.53;;;8.94;50.68
21433;BME280;18592;49.708;10.900;2023-03-07T09:16:28;97110.19;;;9.00;50.40
21433;BME280;18592;49.708;10.900;2023-03-07T09:18:31;97113.72;;;9.05;50.58
21433;BME280;18592;49.708;10.900;2023-03-07T09:20:32;97112.06;;;9.09;50.49
21433;BME280;18592;49.708;10.900;2023-03-07T09:22:34;97110.13;;;9.15;50.16
21433;BME280;18592;49.708;10.900;2023-03-07T09:24:36;97101.69;;;9.16;50.56
21433;BME280;18592;49.708;10.900;2023-03-07T09:26:38;97102.78;;;9.20;50.49
21433;BME280;18592;49.708;10.900;2023-03-07T09:28:40;97101.13;;;9.24;50.56
21433;BME280;18592;49.708;10.900;2023-03-07T09:30:41;97107.34;;;9.30;50.71
21433;BME280;18592;49.708;10.900;2023-03-07T09:32:46;97088.00;;;9.36;50.44
21433;BME280;18592;49.708;10.900;2023-03-07T09:34:52;97103.75;;;9.44;50.54
21433;BME280;18592;49.708;10.900;2023-03-07T09:36:54;97100.19;;;9.49;50.62
21433;BME280;18592;49.708;10.900;2023-03-07T09:38:56;97091.75;;;9.55;50.54
21433;BME280;18592;49.708;10.900;2023-03-07T09:43:21;97079.69;;;9.67;50.35
21433;BME280;18592;49.708;10.900;2023-03-07T09:45:52;97080.22;;;9.74;50.50
21433;BME280;18592;49.708;10.900;2023-03-07T09:48:12;97085.31;;;9.80;50.19
21433;BME280;18592;49.708;10.900;2023-03-07T09:52:46;97081.69;;;9.95;50.41
21433;BME280;18592;49.708;10.900;2023-03-07T09:57:03;97071.78;;;10.09;50.03
21433;BME280;18592;49.708;10.900;2023-03-07T10:01:25;97073.88;;;10.22;50.00
21433;BME280;18592;49.708;10.900;2023-03-07T10:03:34;97062.38;;;10.30;50.39
21433;BME280;18592;49.708;10.900;2023-03-07T10:05:42;97055.22;;;10.39;50.38
21433;BME280;18592;49.708;10.900;2023-03-07T10:07:46;97048.88;;;10.49;50.61
21433;BME280;18592;49.708;10.900;2023-03-07T10:10:33;97055.84;;;10.60;50.59
21433;BME280;18592;49.708;10.900;2023-03-07T10:12:33;97063.63;;;10.71;50.50
21433;BME280;18592;49.708;10.900;2023-03-07T10:17:26;97060.69;;;10.92;50.56
21433;BME280;18592;49.708;10.900;2023-03-07T10:26:11;97046.09;;;11.25;49.84
21433;BME280;18592;49.708;10.900;2023-03-07T10:28:30;97034.81;;;11.31;49.91
21433;BME280;18592;49.708;10.900;2023-03-07T10:30:32;97034.47;;;11.38;49.58
21433;BME280;18592;49.708;10.900;2023-03-07T10:32:52;97031.69;;;11.43;49.66
21433;BME280;18592;49.708;10.900;2023-03-07T10:37:16;97017.84;;;11.58;49.72
21433;BME280;18592;49.708;10.900;2023-03-07T10:39:30;97032.72;;;11.66;49.55
21433;BME280;18592;49.708;10.900;2023-03-07T10:41:34;97026.09;;;11.72;49.25
21433;BME280;18592;49.708;10.900;2023-03-07T10:43:37;97013.19;;;11.77;49.19
21433;BME280;18592;49.708;10.900;2023-03-07T10:45:39;97015.56;;;11.84;49.21
21433;BME280;18592;49.708;10.900;2023-03-07T10:47:42;97009.72;;;11.90;49.37
21433;BME280;18592;49.708;10.900;2023-03-07T10:49:47;97011.78;;;11.98;49.45
21433;BME280;18592;49.708;10.900;2023-03-07T10:52:24;97017.88;;;12.09;49.56
21433;BME280;18592;49.708;10.900;2023-03-07T10:54:30;96999.94;;;12.22;49.37
21433;BME280;18592;49.708;10.900;2023-03-07T10:56:32;96994.47;;;12.35;49.69
21433;BME280;18592;49.708;10.900;2023-03-07T10:58:36;96986.31;;;12.49;49.63
21433;BME280;18592;49.708;10.900;2023-03-07T11:00:38;96986.31;;;12.62;49.70
21433;BME280;18592;49.708;10.900;2023-03-07T11:02:43;96986.34;;;12.76;49.72
21433;BME280;18592;49.708;10.900;2023-03-07T11:04:46;96988.25;;;12.89;49.62
21433;BME280;18592;49.708;10.900;2023-03-07T11:06:58;96981.66;;;13.04;49.52
21433;BME280;18592;49.708;10.900;2023-03-07T11:11:39;96973.97;;;13.33;49.25
21433;BME280;18592;49.708;10.900;2023-03-07T11:14:03;96964.41;;;13.44;49.16
21433;BME280;18592;49.708;10.900;2023-03-07T11:16:18;96970.94;;;13.57;48.46
21433;BME280;18592;49.708;10.900;2023-03-07T11:18:40;96962.22;;;13.68;48.70
21433;BME280;18592;49.708;10.900;2023-03-07T11:20:48;96973.72;;;13.79;48.57
21433;BME280;18592;49.708;10.900;2023-03-07T11:23:17;96968.81;;;13.89;47.86